Time;durP1;ratioP1;P1;durP2;ratioP2;P2;SDS_P1;SDS_P2;PMS_P1;PMS_P2;Temp;Humidity;BMP_temperature;BMP_pressure;BME280_temperature;BME280_humidity;BME280_pressure;Samples;Min_cycle;Max_cycle;Signal;HPM_P1;HPM_P2
2022/12/14 00:00:27;;;;;;;5.72;5.03;;;;;;;17.04;37.44;100574.47;5046417;28;20032;-61
2022/12/14 00:02:52;;;;;;;6.30;5.40;;;;;;;17.03;37.46;100566.56;5046114;28;20037;-61
2022/12/14 00:05:18;;;;;;;7.85;5.32;;;;;;;17.02;37.51;100562.22;5045540;28;20494;-61
2022/12/14 00:07:44;;;;;;;6.88;6.10;;;;;;;16.90;37.47;100540.19;5046376;28;20053;-61
2022/12/14 00:10:10;;;;;;;6.55;5.15;;;;;;;17.01;37.49;100553.31;5044031;28;20052;-59
2022/12/14 00:12:35;;;;;;;5.60;4.70;;;;;;;17.01;37.35;100552.47;5046384;28;20026;-59
2022/12/14 00:15:01;;;;;;;6.13;4.90;;;;;;;16.99;37.41;100534.69;5045978;28;20037;-60
2022/12/14 00:17:27;;;;;;;5.63;5.03;;;;;;;17.01;37.38;100544.41;5039543;28;20033;-60
2022/12/14 00:19:52;;;;;;;6.47;5.10;;;;;;;16.99;37.35;100531.13;5046069;28;20079;-60
2022/12/14 00:22:17;;;;;;;5.97;5.15;;;;;;;16.98;37.46;100530.31;5045540;28;20567;-60
2022/12/14 00:24:43;;;;;;;5.32;4.72;;;;;;;16.97;37.28;100534.00;5044931;28;20108;-60
2022/12/14 00:27:08;;;;;;;6.57;5.20;;;;;;;16.96;37.31;100526.13;5046206;28;20048;-60
2022/12/14 00:29:33;;;;;;;5.78;4.88;;;;;;;16.97;37.22;100525.09;5044576;28;20055;-60
2022/12/14 00:31:58;;;;;;;7.07;5.45;;;;;;;16.95;37.31;100527.97;5046223;28;20033;-60
2022/12/14 00:34:24;;;;;;;6.13;5.50;;;;;;;16.95;37.28;100527.97;5045750;28;20029;-60
2022/12/14 00:36:49;;;;;;;6.93;5.05;;;;;;;16.95;37.73;100530.66;5044980;28;20033;-60
2022/12/14 00:39:14;;;;;;;5.50;4.90;;;;;;;16.89;37.33;100523.25;5045809;28;20037;-60
2022/12/14 00:41:40;;;;;;;6.57;5.45;;;;;;;16.94;37.43;100531.63;5045734;28;20037;-60
2022/12/14 00:44:05;;;;;;;7.22;5.78;;;;;;;16.94;37.45;100528.13;5045150;28;20025;-60
2022/12/14 00:46:30;;;;;;;6.20;5.57;;;;;;;16.93;37.63;100531.81;5045313;28;20021;-60
2022/12/14 00:48:56;;;;;;;7.25;5.70;;;;;;;16.94;37.33;100528.13;5045219;28;20077;-60
2022/12/14 00:51:21;;;;;;;7.18;5.63;;;;;;;16.93;37.38;100523.75;5044250;28;20129;-60
2022/12/14 00:53:46;;;;;;;6.70;6.00;;;;;;;16.92;37.37;100524.78;5043540;28;20060;-61
2022/12/14 00:56:12;;;;;;;7.13;5.70;;;;;;;16.91;37.40;100521.25;5045474;28;20033;-60
2022/12/14 00:58:37;;;;;;;6.35;5.40;;;;;;;16.92;37.46;100524.78;5045457;28;20057;-60
2022/12/14 01:01:08;;;;;;;5.65;5.03;;;;;;;16.91;37.32;100518.56;5045675;28;20033;-60
2022/12/14 01:03:34;;;;;;;7.32;5.40;;;;;;;16.92;37.34;100519.41;5044877;28;20067;-61
2022/12/14 01:06:00;;;;;;;6.35;5.50;;;;;;;16.91;37.49;100507.81;5044651;28;20022;-60
2022/12/14 01:08:33;;;;;;;5.93;5.22;;;;;;;16.88;37.38;100500.09;5043370;28;20326;-60
2022/12/14 01:11:02;;;;;;;7.15;5.53;;;;;;;16.90;37.34;100500.75;5044204;28;20036;-60
2022/12/14 01:13:28;;;;;;;6.50;5.47;;;;;;;16.89;37.20;100503.59;5044894;28;20029;-61
2022/12/14 01:15:53;;;;;;;5.47;4.63;;;;;;;16.90;37.31;100499.91;5044555;28;20034;-60
2022/12/14 01:18:18;;;;;;;4.95;4.45;;;;;;;16.90;37.27;100495.38;5045220;28;20089;-60
2022/12/14 01:20:43;;;;;;;5.50;4.57;;;;;;;16.90;37.21;100489.16;5043898;28;20029;-61
2022/12/14 01:23:09;;;;;;;5.53;4.60;;;;;;;16.88;37.34;100486.66;5039430;28;20033;-60
2022/12/14 01:25:34;;;;;;;5.57;4.88;;;;;;;16.88;37.33;100485.81;5039767;28;20104;-60
2022/12/14 01:27:59;;;;;;;5.13;4.63;;;;;;;16.88;37.37;100481.28;5045070;28;20055;-60
2022/12/14 01:30:25;;;;;;;6.53;4.90;;;;;;;16.88;37.41;100492.03;5044768;28;20074;-60
2022/12/14 01:32:50;;;;;;;5.82;5.05;;;;;;;16.89;37.21;100490.19;5044662;28;20059;-60
2022/12/14 01:35:16;;;;;;;5.78;4.90;;;;;;;16.88;37.33;100483.13;5044468;28;20083;-61
2022/12/14 01:37:41;;;;;;;6.43;4.95;;;;;;;16.88;37.29;100477.78;5044553;28;20022;-60
2022/12/14 01:40:07;;;;;;;7.13;5.40;;;;;;;16.88;37.10;100477.78;5044873;28;20021;-60
2022/12/14 01:42:37;;;;;;;5.78;4.80;;;;;;;16.88;37.40;100477.78;5044170;28;20478;-60
2022/12/14 01:45:03;;;;;;;6.45;5.68;;;;;;;16.87;37.25;100479.63;5044405;28;20029;-60
2022/12/14 01:47:35;;;;;;;5.85;4.72;;;;;;;16.88;37.18;100478.59;5044384;28;20053;-59
2022/12/14 01:50:07;;;;;;;6.72;5.45;;;;;;;16.88;37.07;100475.09;5043220;28;20093;-60
2022/12/14 01:52:39;;;;;;;6.00;5.40;;;;;;;16.87;37.33;100476.94;5042651;28;20059;-60
2022/12/14 01:55:15;;;;;;;6.38;5.00;;;;;;;16.86;37.21;100475.22;5044510;28;20028;-60
2022/12/14 01:58:00;;;;;;;5.40;4.15;;;;;;;16.87;37.23;100473.41;5037769;28;20053;-61
2022/12/14 02:00:25;;;;;;;5.90;5.20;;;;;;;16.86;37.19;100467.19;5025387;28;20057;-60
2022/12/14 02:03:24;;;;;;;5.40;4.75;;;;;;;16.80;37.19;100443.69;5029857;28;20034;-61
2022/12/14 02:05:57;;;;;;;6.40;5.03;;;;;;;16.80;37.18;100451.75;5030705;28;20420;-61
2022/12/14 02:08:23;;;;;;;5.57;4.88;;;;;;;16.85;37.15;100456.63;5050653;28;21528;-60
2022/12/14 02:10:49;;;;;;;6.45;5.07;;;;;;;16.85;37.17;100451.25;5049525;28;20029;-60
2022/12/14 02:13:21;;;;;;;6.50;4.97;;;;;;;16.84;37.07;100445.03;5050710;28;20037;-60
2022/12/14 02:15:47;;;;;;;6.72;5.10;;;;;;;16.84;37.05;100452.25;5048974;28;20089;-61
2022/12/14 02:18:27;;;;;;;7.22;5.03;;;;;;;16.84;37.17;100442.34;5051067;28;20029;-61
2022/12/14 02:21:07;;;;;;;6.13;5.28;;;;;;;16.83;37.14;100451.41;5050473;28;20112;-61
2022/12/14 02:23:54;;;;;;;6.80;5.53;;;;;;;16.83;37.11;100451.41;5050883;28;20029;-61
2022/12/14 02:26:44;;;;;;;5.88;5.00;;;;;;;16.84;37.08;100452.25;5050915;28;20025;-61
2022/12/14 02:29:31;;;;;;;6.43;5.57;;;;;;;16.83;37.13;100446.06;5050780;28;20034;-61
2022/12/14 02:32:34;;;;;;;5.65;4.80;;;;;;;16.83;37.09;100445.22;5047936;28;20037;-61
2022/12/14 02:35:22;;;;;;;6.47;5.30;;;;;;;16.83;37.21;100434.47;5049854;28;20037;-62
2022/12/14 02:38:16;;;;;;;6.70;5.35;;;;;;;16.82;37.32;100436.31;5033187;28;20053;-61
2022/12/14 02:41:10;;;;;;;6.25;4.90;;;;;;;16.81;37.08;100429.25;5049593;28;20036;-61
2022/12/14 02:43:55;;;;;;;5.82;4.88;;;;;;;16.81;37.16;100425.72;5042853;28;20052;-61
2022/12/14 02:46:28;;;;;;;5.68;4.72;;;;;;;16.79;37.13;100431.28;5049257;28;20669;-61
2022/12/14 02:49:00;;;;;;;5.72;4.55;;;;;;;16.79;37.13;100422.38;5050577;28;20053;-61
2022/12/14 02:51:53;;;;;;;5.40;4.90;;;;;;;16.78;37.21;100418.00;5050193;28;20052;-61
2022/12/14 02:54:58;;;;;;;5.78;4.97;;;;;;;16.77;37.10;100406.44;5050121;28;20029;-61
2022/12/14 02:57:31;;;;;;;5.88;4.88;;;;;;;16.78;37.12;100413.50;5020012;28;20071;-61
2022/12/14 02:59:59;;;;;;;7.07;5.28;;;;;;;16.77;37.07;100411.78;5049545;28;20382;-61
2022/12/14 03:02:25;;;;;;;5.97;4.88;;;;;;;16.77;36.97;100411.78;5049719;28;20025;-60
2022/12/14 03:04:51;;;;;;;6.78;5.40;;;;;;;16.77;37.06;100408.28;5049328;28;20461;-61
2022/12/14 03:07:43;;;;;;;6.25;5.15;;;;;;;16.76;37.00;100399.38;5050323;28;20051;-61
2022/12/14 03:10:26;;;;;;;5.43;4.93;;;;;;;16.77;37.04;100400.22;5048715;28;20032;-61
2022/12/14 03:13:09;;;;;;;6.60;5.03;;;;;;;16.75;37.18;100397.72;5047980;28;20021;-61
2022/12/14 03:15:36;;;;;;;6.72;5.47;;;;;;;16.75;37.11;100395.03;5045453;28;20025;-61
2022/12/14 03:18:04;;;;;;;5.72;4.95;;;;;;;16.75;37.08;100397.72;5046381;28;20029;-61
2022/12/14 03:20:31;;;;;;;5.75;5.13;;;;;;;16.70;37.16;100400.88;5046364;28;20033;-61
2022/12/14 03:23:01;;;;;;;6.05;5.22;;;;;;;16.73;37.05;100400.53;5045699;28;20056;-61
2022/12/14 03:25:55;;;;;;;7.18;5.65;;;;;;;16.76;36.99;100393.19;5046768;28;20039;-61
2022/12/14 03:28:23;;;;;;;6.25;4.85;;;;;;;16.73;37.05;100400.53;5041311;28;20045;-60
2022/12/14 03:30:54;;;;;;;5.68;4.78;;;;;;;16.74;37.06;100390.69;5045604;28;20079;-61
2022/12/14 03:33:22;;;;;;;5.65;4.97;;;;;;;16.61;37.12;100371.47;5046616;28;20112;-61
2022/12/14 03:36:10;;;;;;;5.72;5.05;;;;;;;16.73;37.12;100388.97;5044776;28;20059;-61
2022/12/14 03:38:44;;;;;;;6.47;5.33;;;;;;;16.73;37.07;100373.69;5045660;28;20041;-61
2022/12/14 03:41:56;;;;;;;5.10;4.60;;;;;;;16.72;37.04;100372.03;5045468;28;20049;-61
2022/12/14 03:44:28;;;;;;;6.60;5.57;;;;;;;16.72;36.88;100377.41;5046530;28;20093;-61
2022/12/14 03:47:11;;;;;;;6.05;5.20;;;;;;;16.72;36.99;100372.03;5046274;28;20026;-58
2022/12/14 03:49:44;;;;;;;5.88;4.78;;;;;;;16.72;37.06;100366.66;5046653;28;20037;-58
2022/12/14 03:52:43;;;;;;;6.18;4.93;;;;;;;16.71;37.08;100356.06;5044890;28;20030;-60
2022/12/14 03:55:26;;;;;;;6.18;4.95;;;;;;;16.71;37.02;100356.91;5046316;28;20025;-60
2022/12/14 03:58:21;;;;;;;6.15;5.22;;;;;;;16.71;36.94;100348.84;5037284;28;20089;-60
2022/12/14 04:01:02;;;;;;;6.40;5.18;;;;;;;16.70;37.05;100343.66;5046517;28;20124;-60
2022/12/14 04:03:42;;;;;;;5.60;4.97;;;;;;;16.70;37.02;100341.81;5037347;28;20465;-61
2022/12/14 04:06:15;;;;;;;6.43;5.40;;;;;;;16.70;37.01;100340.97;5026037;28;20026;-60
2022/12/14 04:08:49;;;;;;;6.90;5.45;;;;;;;16.70;36.97;100332.94;5031679;28;20302;-60
2022/12/14 04:20:02;;;;;;;6.78;5.57;;;;;;;16.70;36.94;100333.75;5045125;28;20070;-60
2022/12/14 04:22:29;;;;;;;6.65;5.07;;;;;;;16.70;36.94;100324.88;5044159;28;20026;-61
2022/12/14 04:27:57;;;;;;;6.07;5.32;;;;;;;16.56;36.83;100299.53;5044991;28;20102;-60
2022/12/14 04:30:22;;;;;;;6.40;4.75;;;;;;;16.69;36.87;100318.66;5044601;28;20047;-61
2022/12/14 04:33:45;;;;;;;5.78;4.95;;;;;;;16.69;36.96;100317.81;5045898;28;20037;-60
2022/12/14 04:35:51;;;;;;;5.88;5.15;;;;;;;16.70;36.88;100322.19;5025124;28;20426;-60
2022/12/14 04:38:21;;;;;;;5.55;4.80;;;;;;;16.70;36.89;100327.56;5025128;28;20120;-60
2022/12/14 04:40:55;;;;;;;6.85;5.57;;;;;;;16.68;36.88;100316.97;5044398;28;20038;-60
2022/12/14 04:43:25;;;;;;;5.47;4.82;;;;;;;16.70;36.85;100316.81;5044631;28;20490;-60
2022/12/14 04:45:57;;;;;;;6.13;4.88;;;;;;;16.69;36.88;100312.44;5044162;28;20661;-59
2022/12/14 04:48:39;;;;;;;5.25;4.63;;;;;;;16.68;36.88;100308.09;5044387;28;20056;-58
2022/12/14 04:51:07;;;;;;;5.45;4.60;;;;;;;16.69;36.90;100309.75;5043594;28;20091;-59
2022/12/14 04:53:33;;;;;;;6.07;5.03;;;;;;;16.69;36.71;100312.44;5045414;28;20041;-60
2022/12/14 04:56:11;;;;;;;7.72;5.40;;;;;;;16.69;36.79;100312.44;5045353;28;20026;-60
2022/12/14 04:58:37;;;;;;;7.25;5.30;;;;;;;16.70;36.75;100312.28;5039802;28;20052;-62
2022/12/14 05:01:26;;;;;;;6.32;4.97;;;;;;;16.71;36.66;100305.91;5045355;28;20021;-60
2022/12/14 05:04:05;;;;;;;6.25;5.15;;;;;;;16.71;36.80;100305.06;5043515;28;20052;-60
2022/12/14 05:06:36;;;;;;;5.63;4.82;;;;;;;16.71;36.80;100303.22;5044683;28;20036;-60
2022/12/14 05:09:51;;;;;;;5.72;4.88;;;;;;;16.70;36.70;100295.34;5041983;28;20278;-60
2022/12/14 05:12:22;;;;;;;5.55;4.80;;;;;;;16.65;36.86;100285.13;5039502;28;20060;-60
2022/12/14 05:14:58;;;;;;;6.03;5.43;;;;;;;16.64;36.81;100282.59;5034387;28;20033;-60
2022/12/14 05:17:23;;;;;;;5.80;4.85;;;;;;;16.72;36.77;100290.63;5043574;28;20068;-60
2022/12/14 05:19:49;;;;;;;6.35;5.10;;;;;;;16.71;36.82;100297.84;5044584;28;20029;-60
2022/12/14 05:22:15;;;;;;;5.97;5.13;;;;;;;16.71;36.76;100284.44;5037013;28;20029;-60
2022/12/14 05:24:41;;;;;;;5.88;4.97;;;;;;;16.45;36.68;100240.84;5044583;28;20104;-60
2022/12/14 05:27:06;;;;;;;5.47;4.90;;;;;;;16.76;36.65;100285.81;5044811;28;20807;-60
2022/12/14 05:29:31;;;;;;;5.80;4.95;;;;;;;16.76;36.65;100286.63;5044388;28;20067;-60
2022/12/14 05:31:57;;;;;;;5.75;5.10;;;;;;;16.72;36.61;100277.22;5044743;28;20025;-61
2022/12/14 05:34:22;;;;;;;6.63;5.03;;;;;;;16.77;36.62;100291.00;5043847;28;20032;-60
2022/12/14 05:36:47;;;;;;;6.85;4.95;;;;;;;16.78;36.66;100286.44;5042701;28;20044;-60
2022/12/14 05:39:13;;;;;;;6.60;5.25;;;;;;;16.76;36.79;100285.81;5041989;28;20084;-60
2022/12/14 05:41:39;;;;;;;7.18;5.95;;;;;;;16.78;36.79;100281.94;5024986;28;20534;-60
2022/12/14 05:44:04;;;;;;;5.82;5.15;;;;;;;16.79;37.07;100290.84;5039878;28;20105;-60
2022/12/14 05:46:29;;;;;;;5.88;5.00;;;;;;;16.79;36.78;100288.16;5029368;28;20105;-60
2022/12/14 05:48:55;;;;;;;6.15;4.78;;;;;;;16.79;36.96;100282.78;5024842;28;20046;-60
2022/12/14 05:51:20;;;;;;;6.28;4.82;;;;;;;16.80;36.98;100282.59;5024332;28;20079;-60
2022/12/14 05:53:45;;;;;;;6.47;5.20;;;;;;;16.80;36.92;100279.91;5024651;28;20029;-60
2022/12/14 05:56:10;;;;;;;6.45;4.80;;;;;;;16.73;37.07;100268.19;5024369;28;20041;-60
2022/12/14 05:58:36;;;;;;;7.32;6.03;;;;;;;16.82;36.92;100275.22;5035272;28;20037;-60
2022/12/14 06:01:04;;;;;;;5.55;4.95;;;;;;;16.81;37.04;100275.38;5044572;28;20040;-60
2022/12/14 06:03:29;;;;;;;6.13;5.53;;;;;;;16.82;37.02;100267.19;5043522;28;20025;-60
2022/12/14 06:06:06;;;;;;;5.60;4.60;;;;;;;16.75;37.22;100255.44;5043003;28;20075;-60
2022/12/14 06:08:34;;;;;;;6.20;5.47;;;;;;;16.83;37.20;100260.78;5041883;28;20120;-60
2022/12/14 06:11:21;;;;;;;5.47;4.85;;;;;;;16.84;37.10;100261.63;5044529;28;20036;-60
2022/12/14 06:13:47;;;;;;;5.57;4.72;;;;;;;16.83;37.09;100266.16;5043447;28;20028;-60
2022/12/14 06:16:19;;;;;;;5.60;5.05;;;;;;;16.84;37.17;100259.78;5035414;28;20061;-60
2022/12/14 06:18:46;;;;;;;7.65;5.28;;;;;;;16.87;37.29;100269.34;5034776;28;20025;-60
2022/12/14 06:21:14;;;;;;;5.72;4.20;;;;;;;16.86;37.33;100265.81;5033454;28;20026;-60
2022/12/14 06:23:42;;;;;;;7.38;5.25;;;;;;;16.84;37.30;100253.56;5037704;28;20033;-60
2022/12/14 06:26:08;;;;;;;6.53;5.22;;;;;;;16.87;37.32;100261.28;5040546;28;20116;-61
2022/12/14 06:28:34;;;;;;;6.75;4.80;;;;;;;16.87;37.26;100253.25;5036893;28;20045;-61
2022/12/14 06:31:00;;;;;;;6.30;5.00;;;;;;;16.79;37.09;100245.19;5038695;28;20052;-60
2022/12/14 06:33:25;;;;;;;5.50;4.72;;;;;;;16.86;37.26;100256.91;5031955;28;20044;-61
2022/12/14 06:35:51;;;;;;;5.85;5.05;;;;;;;16.88;37.27;100257.59;5036083;28;20045;-60
2022/12/14 06:38:16;;;;;;;5.60;5.10;;;;;;;16.86;37.21;100257.75;5042294;28;20036;-60
2022/12/14 06:40:42;;;;;;;6.05;4.60;;;;;;;16.87;37.25;100253.25;5034005;28;20379;-61
2022/12/14 06:43:07;;;;;;;6.95;5.07;;;;;;;16.89;37.20;100249.34;5034233;28;20109;-60
2022/12/14 06:45:33;;;;;;;6.30;5.07;;;;;;;16.90;37.14;100251.03;5031603;28;20065;-61
2022/12/14 06:47:58;;;;;;;6.20;5.03;;;;;;;16.90;37.40;100253.72;5034277;28;20050;-61
2022/12/14 06:50:26;;;;;;;6.57;5.05;;;;;;;16.86;37.14;100241.63;5039097;28;20044;-60
2022/12/14 06:52:51;;;;;;;5.97;5.32;;;;;;;16.88;37.16;100245.00;5040184;28;20026;-60
2022/12/14 06:55:17;;;;;;;5.93;4.78;;;;;;;16.90;37.20;100252.88;5040650;28;20047;-60
2022/12/14 06:57:42;;;;;;;5.97;5.03;;;;;;;16.90;37.11;100253.72;5037446;28;20030;-61
2022/12/14 07:00:11;;;;;;;6.22;5.10;;;;;;;16.91;37.31;100258.09;5036818;28;20045;-60
2022/12/14 07:02:37;;;;;;;5.70;5.10;;;;;;;16.90;37.17;100261.75;5038200;28;20056;-60
2022/12/14 07:05:03;;;;;;;6.13;5.00;;;;;;;16.90;37.22;100255.56;5036606;28;20490;-60
2022/12/14 07:07:31;;;;;;;5.43;4.85;;;;;;;16.92;37.22;100265.13;5036139;28;20026;-63
2022/12/14 07:09:57;;;;;;;6.00;5.03;;;;;;;16.84;37.13;100250.88;5042127;28;20033;-61
2022/12/14 07:12:22;;;;;;;7.25;4.75;;;;;;;16.91;37.11;100265.31;5040770;28;20025;-63
2022/12/14 07:14:47;;;;;;;5.75;5.03;;;;;;;16.91;36.99;100271.53;5039918;28;20029;-64
2022/12/14 07:17:12;;;;;;;6.60;5.20;;;;;;;16.91;37.20;100270.69;5037988;28;20490;-60
2022/12/14 07:19:38;;;;;;;5.80;4.93;;;;;;;16.91;37.12;100279.56;5035532;28;20096;-60
2022/12/14 07:22:03;;;;;;;12.10;6.50;;;;;;;16.90;37.21;100266.31;5031212;28;20029;-60
2022/12/14 07:24:29;;;;;;;10.75;5.63;;;;;;;16.96;37.09;100269.16;5026967;28;20463;-60
2022/12/14 07:26:55;;;;;;;7.07;5.72;;;;;;;16.97;37.03;100261.94;5027165;28;20022;-61
2022/12/14 07:29:21;;;;;;;6.72;5.25;;;;;;;16.98;36.95;100256.38;5026672;28;20096;-61
2022/12/14 07:31:46;;;;;;;5.97;4.97;;;;;;;16.96;36.99;100255.72;5031129;28;20029;-60
2022/12/14 07:34:12;;;;;;;8.55;4.93;;;;;;;17.02;36.95;100269.47;5035337;28;20064;-60
2022/12/14 07:36:38;;;;;;;8.10;5.25;;;;;;;17.04;37.08;100262.94;5044693;28;20040;-60
2022/12/14 07:39:03;;;;;;;7.20;5.07;;;;;;;17.08;37.20;100268.81;5065207;28;20606;-61
2022/12/14 07:41:30;;;;;;;8.55;5.25;;;;;;;17.09;37.04;100265.94;5066260;28;20528;-61
2022/12/14 07:43:57;;;;;;;6.47;5.30;;;;;;;17.12;37.13;100270.97;5061028;28;20035;-60
2022/12/14 07:46:24;;;;;;;6.80;5.22;;;;;;;17.12;37.11;100267.41;5052455;28;20029;-61
2022/12/14 07:48:51;;;;;;;7.38;4.70;;;;;;;17.15;37.05;100272.44;5053892;28;20045;-60
2022/12/14 07:51:20;;;;;;;5.18;4.60;;;;;;;17.13;37.06;100259.22;5042083;28;20052;-61
2022/12/14 07:53:46;;;;;;;6.57;4.75;;;;;;;17.15;36.97;100275.97;5033281;28;20036;-60
2022/12/14 07:56:17;;;;;;;6.38;5.22;;;;;;;17.20;36.98;100281.69;5051979;28;20060;-61
2022/12/14 07:58:43;;;;;;;8.15;4.65;;;;;;;17.21;36.88;100271.78;5065929;28;20025;-61
2022/12/14 08:01:12;;;;;;;9.50;4.95;;;;;;;17.23;36.88;100269.75;5048520;28;20035;-60
2022/12/14 08:03:41;;;;;;;6.32;4.82;;;;;;;17.26;36.72;100272.09;5050508;28;20040;-60
2022/12/14 08:06:07;;;;;;;6.32;4.68;;;;;;;17.26;36.64;100273.94;5056515;28;20029;-60
2022/12/14 08:08:33;;;;;;;5.55;4.88;;;;;;;17.22;36.59;100268.06;5059514;28;20067;-60
2022/12/14 08:10:59;;;;;;;5.05;4.30;;;;;;;17.27;36.37;100267.56;5046996;28;20033;-59
2022/12/14 08:13:24;;;;;;;6.40;5.22;;;;;;;17.20;36.55;100252.13;5044762;28;20030;-60
2022/12/14 08:15:49;;;;;;;6.90;4.80;;;;;;;17.24;36.66;100260.66;5039754;28;20049;-60
2022/12/14 08:18:15;;;;;;;5.95;4.90;;;;;;;17.30;36.69;100269.91;5044247;28;20029;-60
2022/12/14 08:20:40;;;;;;;7.15;5.35;;;;;;;17.21;36.66;100261.88;5045290;28;20075;-61
2022/12/14 08:23:05;;;;;;;5.53;4.63;;;;;;;17.32;36.88;100282.13;5052444;28;20025;-60
2022/12/14 08:25:30;;;;;;;7.63;5.32;;;;;;;17.11;36.63;100245.09;5059116;28;20028;-61
2022/12/14 08:27:56;;;;;;;6.88;5.00;;;;;;;17.32;36.61;100270.56;5062220;28;20021;-60
2022/12/14 08:30:21;;;;;;;6.57;5.07;;;;;;;17.36;36.63;100279.94;5057422;28;20032;-60
2022/12/14 08:32:46;;;;;;;7.32;4.80;;;;;;;17.37;36.52;100282.44;5061462;28;20060;-61
2022/12/14 08:35:12;;;;;;;7.78;5.43;;;;;;;17.37;36.60;100279.75;5053124;28;20079;-60
2022/12/14 08:37:37;;;;;;;5.57;4.75;;;;;;;17.38;36.54;100284.16;5041789;28;20040;-61
2022/12/14 08:40:02;;;;;;;8.05;5.53;;;;;;;17.41;36.52;100278.41;5044334;28;20033;-60
2022/12/14 08:42:28;;;;;;;6.47;4.85;;;;;;;17.44;36.51;100280.75;5034209;28;20034;-60
2022/12/14 08:44:53;;;;;;;7.47;5.43;;;;;;;17.47;36.29;100280.41;5047361;28;20025;-60
2022/12/14 08:47:18;;;;;;;6.53;4.90;;;;;;;17.49;36.04;100278.38;5063848;28;20446;-60
2022/12/14 08:49:43;;;;;;;5.43;4.82;;;;;;;17.52;36.11;100279.88;5065066;28;20037;-60
2022/12/14 08:52:10;;;;;;;7.53;5.85;;;;;;;17.43;35.92;100265.63;5064916;28;20036;-60
2022/12/14 08:54:35;;;;;;;6.68;5.15;;;;;;;17.54;36.26;100275.16;5065009;28;20025;-60
2022/12/14 08:57:02;;;;;;;5.97;4.80;;;;;;;17.57;35.79;100282.88;5057562;28;20095;-60
2022/12/14 08:59:28;;;;;;;7.15;5.47;;;;;;;17.57;35.80;100287.41;5045022;28;20656;-60
2022/12/14 09:01:53;;;;;;;6.82;5.53;;;;;;;17.55;35.64;100276.84;5045331;28;20025;-60
2022/12/14 09:04:19;;;;;;;5.68;4.88;;;;;;;17.57;35.89;100284.72;5053820;28;20025;-60
2022/12/14 09:06:44;;;;;;;6.00;4.82;;;;;;;17.54;35.85;100277.84;5041861;28;20116;-59
2022/12/14 09:09:10;;;;;;;5.75;5.07;;;;;;;17.54;35.84;100285.06;5033464;28;20024;-59
2022/12/14 09:11:35;;;;;;;7.60;5.50;;;;;;;17.53;35.80;100273.50;5040179;28;20029;-60
2022/12/14 09:14:00;;;;;;;7.50;5.72;;;;;;;17.56;35.52;100275.84;5044326;28;20037;-60
2022/12/14 09:16:26;;;;;;;5.70;4.55;;;;;;;17.56;35.73;100278.53;5035030;28;20026;-60
2022/12/14 09:18:52;;;;;;;5.15;4.57;;;;;;;17.58;35.59;100283.72;5034408;28;20033;-59
2022/12/14 09:21:17;;;;;;;6.47;4.80;;;;;;;17.61;35.57;100283.38;5037710;28;20029;-60
2022/12/14 09:23:43;;;;;;;6.25;5.20;;;;;;;17.61;35.41;100280.69;5037535;28;20026;-59
2022/12/14 09:26:11;;;;;;;8.38;4.93;;;;;;;17.61;35.55;100286.06;5039418;28;20025;-59
2022/12/14 09:28:39;;;;;;;5.70;4.57;;;;;;;17.61;35.62;100275.31;5039107;28;20104;-60
2022/12/14 09:31:07;;;;;;;6.40;4.93;;;;;;;17.61;35.50;100273.44;5030797;28;20037;-60
2022/12/14 09:33:33;;;;;;;6.38;5.20;;;;;;;17.61;35.50;100278.00;5024623;28;20026;-61
2022/12/14 09:36:03;;;;;;;7.88;5.68;;;;;;;17.62;35.56;100285.88;5036592;28;20537;-60
2022/12/14 09:38:30;;;;;;;6.35;5.05;;;;;;;17.59;35.49;100280.88;5044370;28;20484;-61
2022/12/14 09:40:58;;;;;;;5.72;5.20;;;;;;;17.53;35.66;100276.19;5043730;28;20461;-60
2022/12/14 09:43:35;;;;;;;6.55;4.88;;;;;;;17.60;35.45;100277.16;5038838;28;20033;-61
2022/12/14 09:46:20;;;;;;;6.35;4.40;;;;;;;17.62;35.54;100276.97;5040091;28;20673;-60
2022/12/14 09:48:47;;;;;;;5.47;4.45;;;;;;;17.62;35.49;100277.81;5036164;28;20092;-60
2022/12/14 09:51:15;;;;;;;6.15;4.80;;;;;;;17.61;35.23;100273.44;5032652;28;20044;-60
2022/12/14 09:53:42;;;;;;;6.40;5.03;;;;;;;17.63;35.24;100267.91;5042814;28;20025;-60
2022/12/14 09:56:12;;;;;;;6.95;4.68;;;;;;;17.60;35.16;100277.16;5042558;28;20017;-60
2022/12/14 09:58:40;;;;;;;6.40;5.13;;;;;;;17.53;35.23;100257.38;5015809;28;20041;-60
2022/12/14 10:01:21;;;;;;;5.88;4.68;;;;;;;17.59;35.17;100275.50;5058785;28;20048;-60
2022/12/14 10:03:55;;;;;;;5.47;4.90;;;;;;;17.60;34.99;100287.06;5043618;28;20713;-60
2022/12/14 10:06:33;;;;;;;5.40;4.40;;;;;;;17.59;34.99;100285.41;5042791;28;20013;-60
2022/12/14 10:09:04;;;;;;;5.97;4.90;;;;;;;17.57;35.07;100277.50;5044198;28;20029;-60
2022/12/14 10:11:38;;;;;;;5.43;4.50;;;;;;;17.56;35.07;100283.06;5044024;28;20034;-60
2022/12/14 10:14:09;;;;;;;5.97;4.85;;;;;;;17.57;34.92;100279.34;5043509;28;20112;-60
2022/12/14 10:16:58;;;;;;;7.07;5.68;;;;;;;17.55;34.90;100271.47;5042599;28;20021;-60
2022/12/14 10:19:30;;;;;;;6.10;5.03;;;;;;;17.55;35.13;100279.53;5040719;28;20025;-60
2022/12/14 10:22:11;;;;;;;5.82;4.57;;;;;;;17.53;34.93;100273.50;5039651;28;20032;-60
2022/12/14 10:24:41;;;;;;;6.05;4.75;;;;;;;17.52;35.16;100269.13;5062092;28;20033;-60
2022/12/14 10:27:08;;;;;;;5.55;4.55;;;;;;;17.51;35.26;100275.53;5045615;28;20014;-61
2022/12/14 10:29:41;;;;;;;6.07;4.60;;;;;;;17.50;34.95;100265.78;5046950;28;20409;-61
2022/12/14 10:32:14;;;;;;;6.00;4.80;;;;;;;17.53;35.23;100272.66;5045912;28;20017;-60
2022/12/14 10:34:41;;;;;;;6.45;4.60;;;;;;;17.54;35.00;100260.88;5038077;28;20029;-60
2022/12/14 10:37:26;;;;;;;5.93;4.57;;;;;;;17.54;35.45;100263.56;5042463;28;20030;-59
2022/12/14 10:40:07;;;;;;;6.15;4.80;;;;;;;17.54;35.45;100266.25;5054235;28;20029;-60
2022/12/14 10:42:56;;;;;;;5.50;4.63;;;;;;;17.55;35.79;100266.09;5032444;28;20029;-60
2022/12/14 10:45:40;;;;;;;5.65;4.43;;;;;;;17.54;35.71;100263.56;5045726;28;20021;-59
2022/12/14 10:48:38;;;;;;;5.90;5.03;;;;;;;17.55;35.85;100257.19;5048192;28;20049;-60
2022/12/14 10:51:04;;;;;;;5.95;5.18;;;;;;;17.55;35.63;100258.03;5043009;28;20060;-60
2022/12/14 10:53:40;;;;;;;5.63;4.47;;;;;;;17.55;35.99;100252.66;5059620;28;20025;-60
2022/12/14 10:56:10;;;;;;;10.77;4.78;;;;;;;17.54;35.78;100244.75;5066504;28;20027;-60
2022/12/14 10:58:35;;;;;;;5.13;4.28;;;;;;;17.51;35.71;100231.69;5059980;28;20817;-60
2022/12/14 11:01:01;;;;;;;6.13;5.10;;;;;;;17.57;35.60;100231.81;5055464;28;20037;-60
2022/12/14 11:03:27;;;;;;;5.47;4.38;;;;;;;17.62;35.49;100233.97;5065481;28;20043;-61
2022/12/14 11:05:59;;;;;;;6.20;4.88;;;;;;;17.62;35.76;100234.78;5066655;28;20029;-61
2022/12/14 11:08:44;;;;;;;6.47;4.15;;;;;;;17.61;35.68;100232.28;5063757;28;20028;-61
2022/12/14 11:11:15;;;;;;;5.65;3.95;;;;;;;17.62;35.69;100231.28;5039229;28;20022;-61
2022/12/14 11:13:47;;;;;;;4.82;4.28;;;;;;;17.62;35.58;100228.59;5053749;28;20040;-61
2022/12/14 11:16:39;;;;;;;5.05;4.25;;;;;;;17.62;35.76;100224.03;5062919;28;20037;-61
2022/12/14 11:19:20;;;;;;;6.45;4.00;;;;;;;17.62;35.69;100218.66;5059924;28;20076;-61
2022/12/14 11:21:46;;;;;;;6.10;4.97;;;;;;;17.62;35.82;100218.66;5045348;28;20048;-61
2022/12/14 11:24:23;;;;;;;5.07;4.10;;;;;;;17.62;35.73;100212.47;5044597;28;20045;-61
2022/12/14 11:26:55;;;;;;;5.10;4.60;;;;;;;17.63;35.76;100212.31;5046464;28;20025;-61
2022/12/14 11:29:39;;;;;;;6.50;4.32;;;;;;;17.63;35.81;100208.78;5044798;28;20029;-61
2022/12/14 11:32:05;;;;;;;4.90;4.30;;;;;;;17.62;35.92;100205.22;5045184;28;20088;-61
2022/12/14 11:34:34;;;;;;;4.47;3.80;;;;;;;17.61;36.01;100202.72;5061626;28;20509;-60
2022/12/14 11:37:13;;;;;;;6.47;4.00;;;;;;;17.62;36.09;100215.16;5051476;28;20032;-61
2022/12/14 11:39:40;;;;;;;5.18;4.10;;;;;;;17.61;36.01;100219.69;5081428;28;20029;-61
2022/12/14 11:42:05;;;;;;;5.53;4.40;;;;;;;17.53;36.17;100202.78;5066039;28;20040;-61
2022/12/14 11:44:37;;;;;;;4.35;3.92;;;;;;;17.58;36.31;100211.97;5062168;28;20059;-61
2022/12/14 11:47:08;;;;;;;4.85;3.78;;;;;;;17.63;36.35;100220.38;5045163;28;20072;-61
2022/12/14 11:49:36;;;;;;;5.35;4.50;;;;;;;17.65;36.25;100217.50;5061054;28;20036;-61
2022/12/14 11:52:04;;;;;;;4.70;4.07;;;;;;;17.63;36.38;100223.06;5043032;28;20055;-62